sensor_id;sensor_type;location;lat;lon;timestamp;temperature;humidity
55785;DHT22;41709;52.536;5.688;2023-05-07T00:00:32;15.20;91.10
55785;DHT22;41709;52.536;5.688;2023-05-07T00:02:59;15.20;91.10
55785;DHT22;41709;52.536;5.688;2023-05-07T00:05:25;15.20;91.10
55785;DHT22;41709;52.536;5.688;2023-05-07T00:07:51;15.20;91.20
55785;DHT22;41709;52.536;5.688;2023-05-07T00:10:18;15.30;91.20
55785;DHT22;41709;52.536;5.688;2023-05-07T00:12:44;15.20;91.20
55785;DHT22;41709;52.536;5.688;2023-05-07T00:15:10;15.20;91.30
55785;DHT22;41709;52.536;5.688;2023-05-07T00:17:36;15.20;91.20
55785;DHT22;41709;52.536;5.688;2023-05-07T00:20:02;15.20;91.20
55785;DHT22;41709;52.536;5.688;2023-05-07T00:22:29;15.20;91.20
55785;DHT22;41709;52.536;5.688;2023-05-07T00:24:55;15.20;91.20
55785;DHT22;41709;52.536;5.688;2023-05-07T00:27:21;15.20;91.10
55785;DHT22;41709;52.536;5.688;2023-05-07T00:29:47;15.30;91.10
55785;DHT22;41709;52.536;5.688;2023-05-07T00:32:12;15.20;91.00
55785;DHT22;41709;52.536;5.688;2023-05-07T00:34:38;15.20;91.00
55785;DHT22;41709;52.536;5.688;2023-05-07T00:37:04;15.20;91.00
55785;DHT22;41709;52.536;5.688;2023-05-07T00:39:30;15.30;91.00
55785;DHT22;41709;52.536;5.688;2023-05-07T00:41:56;15.20;91.00
55785;DHT22;41709;52.536;5.688;2023-05-07T00:44:22;15.20;91.00
55785;DHT22;41709;52.536;5.688;2023-05-07T00:46:48;15.20;90.90
55785;DHT22;41709;52.536;5.688;2023-05-07T00:49:15;15.20;91.00
55785;DHT22;41709;52.536;5.688;2023-05-07T00:51:41;15.20;90.90
55785;DHT22;41709;52.536;5.688;2023-05-07T00:54:07;15.20;91.20
55785;DHT22;41709;52.536;5.688;2023-05-07T00:56:34;15.20;90.80
55785;DHT22;41709;52.536;5.688;2023-05-07T00:59:01;15.20;90.80
55785;DHT22;41709;52.536;5.688;2023-05-07T01:01:26;15.20;90.80
55785;DHT22;41709;52.536;5.688;2023-05-07T01:03:52;15.20;90.80
55785;DHT22;41709;52.536;5.688;2023-05-07T01:06:19;15.20;90.70
55785;DHT22;41709;52.536;5.688;2023-05-07T01:08:46;15.20;90.70
55785;DHT22;41709;52.536;5.688;2023-05-07T01:11:12;15.20;90.80
55785;DHT22;41709;52.536;5.688;2023-05-07T01:13:39;15.10;90.80
55785;DHT22;41709;52.536;5.688;2023-05-07T01:16:06;15.10;90.80
55785;DHT22;41709;52.536;5.688;2023-05-07T01:18:32;15.10;90.80
55785;DHT22;41709;52.536;5.688;2023-05-07T01:20:58;15.10;90.80
55785;DHT22;41709;52.536;5.688;2023-05-07T01:23:25;15.10;90.80
55785;DHT22;41709;52.536;5.688;2023-05-07T01:25:53;15.10;90.90
55785;DHT22;41709;52.536;5.688;2023-05-07T01:28:19;15.20;91.00
55785;DHT22;41709;52.536;5.688;2023-05-07T01:30:48;15.10;90.90
55785;DHT22;41709;52.536;5.688;2023-05-07T01:33:17;15.10;90.90
55785;DHT22;41709;52.536;5.688;2023-05-07T01:35:48;15.10;90.90
55785;DHT22;41709;52.536;5.688;2023-05-07T01:38:15;15.10;90.90
55785;DHT22;41709;52.536;5.688;2023-05-07T01:40:41;15.10;91.00
55785;DHT22;41709;52.536;5.688;2023-05-07T01:43:07;15.10;91.30
55785;DHT22;41709;52.536;5.688;2023-05-07T01:45:34;15.10;91.00
55785;DHT22;41709;52.536;5.688;2023-05-07T01:48:01;15.10;91.00
55785;DHT22;41709;52.536;5.688;2023-05-07T01:50:27;15.10;91.00
55785;DHT22;41709;52.536;5.688;2023-05-07T01:52:53;15.10;91.00
55785;DHT22;41709;52.536;5.688;2023-05-07T01:55:19;15.10;91.00
55785;DHT22;41709;52.536;5.688;2023-05-07T01:57:44;15.10;91.00
55785;DHT22;41709;52.536;5.688;2023-05-07T02:00:10;15.10;91.00
55785;DHT22;41709;52.536;5.688;2023-05-07T02:02:36;15.10;91.00
55785;DHT22;41709;52.536;5.688;2023-05-07T02:05:03;15.10;91.00
55785;DHT22;41709;52.536;5.688;2023-05-07T02:07:29;15.10;91.00
55785;DHT22;41709;52.536;5.688;2023-05-07T02:09:54;15.10;91.00
55785;DHT22;41709;52.536;5.688;2023-05-07T02:12:23;15.10;91.00
55785;DHT22;41709;52.536;5.688;2023-05-07T02:14:49;15.10;91.10
55785;DHT22;41709;52.536;5.688;2023-05-07T02:17:15;15.10;91.10
55785;DHT22;41709;52.536;5.688;2023-05-07T02:19:40;15.10;91.20
55785;DHT22;41709;52.536;5.688;2023-05-07T02:22:07;15.10;91.20
55785;DHT22;41709;52.536;5.688;2023-05-07T02:24:32;15.10;91.20
55785;DHT22;41709;52.536;5.688;2023-05-07T02:26:58;15.10;91.30
55785;DHT22;41709;52.536;5.688;2023-05-07T02:29:23;15.10;91.40
55785;DHT22;41709;52.536;5.688;2023-05-07T02:31:49;15.00;91.40
55785;DHT22;41709;52.536;5.688;2023-05-07T02:34:16;15.00;91.40
55785;DHT22;41709;52.536;5.688;2023-05-07T02:36:42;15.00;91.40
55785;DHT22;41709;52.536;5.688;2023-05-07T02:39:08;14.90;91.50
55785;DHT22;41709;52.536;5.688;2023-05-07T02:41:33;14.90;91.60
55785;DHT22;41709;52.536;5.688;2023-05-07T02:43:59;14.90;91.70
55785;DHT22;41709;52.536;5.688;2023-05-07T02:46:25;14.80;91.70
55785;DHT22;41709;52.536;5.688;2023-05-07T02:48:50;14.80;91.80
55785;DHT22;41709;52.536;5.688;2023-05-07T02:51:20;14.70;91.80
55785;DHT22;41709;52.536;5.688;2023-05-07T02:53:46;14.80;91.90
55785;DHT22;41709;52.536;5.688;2023-05-07T02:56:11;14.80;91.90
55785;DHT22;41709;52.536;5.688;2023-05-07T02:58:37;14.80;91.90
55785;DHT22;41709;52.536;5.688;2023-05-07T03:01:05;14.70;91.90
55785;DHT22;41709;52.536;5.688;2023-05-07T03:03:30;14.70;92.00
55785;DHT22;41709;52.536;5.688;2023-05-07T03:05:56;14.70;92.00
55785;DHT22;41709;52.536;5.688;2023-05-07T03:08:22;14.60;92.10
55785;DHT22;41709;52.536;5.688;2023-05-07T03:10:47;14.60;92.20
55785;DHT22;41709;52.536;5.688;2023-05-07T03:13:13;14.50;92.30
55785;DHT22;41709;52.536;5.688;2023-05-07T03:15:38;14.50;92.30
55785;DHT22;41709;52.536;5.688;2023-05-07T03:18:04;14.50;92.30
55785;DHT22;41709;52.536;5.688;2023-05-07T03:20:29;14.50;92.40
55785;DHT22;41709;52.536;5.688;2023-05-07T03:22:55;14.60;92.40
55785;DHT22;41709;52.536;5.688;2023-05-07T03:25:21;14.50;92.40
55785;DHT22;41709;52.536;5.688;2023-05-07T03:27:46;14.60;92.40
55785;DHT22;41709;52.536;5.688;2023-05-07T03:30:12;14.60;92.40
55785;DHT22;41709;52.536;5.688;2023-05-07T03:32:37;14.60;92.40
55785;DHT22;41709;52.536;5.688;2023-05-07T03:35:03;14.50;92.40
55785;DHT22;41709;52.536;5.688;2023-05-07T03:37:29;14.50;92.40
55785;DHT22;41709;52.536;5.688;2023-05-07T03:39:54;14.50;92.40
55785;DHT22;41709;52.536;5.688;2023-05-07T03:42:20;14.40;92.40
55785;DHT22;41709;52.536;5.688;2023-05-07T03:44:45;14.40;92.40
55785;DHT22;41709;52.536;5.688;2023-05-07T03:47:11;14.40;92.50
55785;DHT22;41709;52.536;5.688;2023-05-07T03:49:38;14.40;92.50
55785;DHT22;41709;52.536;5.688;2023-05-07T03:52:05;14.30;92.50
55785;DHT22;41709;52.536;5.688;2023-05-07T03:54:30;14.30;92.50
55785;DHT22;41709;52.536;5.688;2023-05-07T03:56:56;14.30;92.50
55785;DHT22;41709;52.536;5.688;2023-05-07T03:59:22;14.30;92.50
55785;DHT22;41709;52.536;5.688;2023-05-07T04:01:47;14.30;92.50
55785;DHT22;41709;52.536;5.688;2023-05-07T04:04:14;14.20;92.50
55785;DHT22;41709;52.536;5.688;2023-05-07T04:06:40;14.20;92.50
55785;DHT22;41709;52.536;5.688;2023-05-07T04:09:06;14.20;92.40
55785;DHT22;41709;52.536;5.688;2023-05-07T04:11:32;14.30;92.40
55785;DHT22;41709;52.536;5.688;2023-05-07T04:13:57;14.30;92.40
55785;DHT22;41709;52.536;5.688;2023-05-07T04:16:23;14.30;92.40
55785;DHT22;41709;52.536;5.688;2023-05-07T04:18:48;14.20;92.30
55785;DHT22;41709;52.536;5.688;2023-05-07T04:21:18;14.20;92.30
55785;DHT22;41709;52.536;5.688;2023-05-07T04:23:46;14.20;92.30
55785;DHT22;41709;52.536;5.688;2023-05-07T04:26:11;14.10;92.30
55785;DHT22;41709;52.536;5.688;2023-05-07T04:28:38;14.20;92.30
55785;DHT22;41709;52.536;5.688;2023-05-07T04:31:04;14.10;92.30
55785;DHT22;41709;52.536;5.688;2023-05-07T04:33:30;14.00;92.30
55785;DHT22;41709;52.536;5.688;2023-05-07T04:35:55;14.00;92.30
55785;DHT22;41709;52.536;5.688;2023-05-07T04:38:21;13.90;92.30
55785;DHT22;41709;52.536;5.688;2023-05-07T04:40:48;13.90;92.30
55785;DHT22;41709;52.536;5.688;2023-05-07T04:43:14;13.90;92.30
55785;DHT22;41709;52.536;5.688;2023-05-07T04:45:39;13.80;92.40
55785;DHT22;41709;52.536;5.688;2023-05-07T04:48:07;13.70;92.40
55785;DHT22;41709;52.536;5.688;2023-05-07T04:50:32;13.70;92.40
55785;DHT22;41709;52.536;5.688;2023-05-07T04:52:58;13.70;92.40
55785;DHT22;41709;52.536;5.688;2023-05-07T04:55:24;13.70;92.40
55785;DHT22;41709;52.536;5.688;2023-05-07T04:57:49;13.70;92.40
55785;DHT22;41709;52.536;5.688;2023-05-07T05:00:15;13.70;92.40
55785;DHT22;41709;52.536;5.688;2023-05-07T05:02:42;13.70;92.40
55785;DHT22;41709;52.536;5.688;2023-05-07T05:05:07;13.80;92.30
55785;DHT22;41709;52.536;5.688;2023-05-07T05:07:33;13.80;92.20
55785;DHT22;41709;52.536;5.688;2023-05-07T05:09:59;13.80;92.20
55785;DHT22;41709;52.536;5.688;2023-05-07T05:12:25;13.80;92.20
55785;DHT22;41709;52.536;5.688;2023-05-07T05:14:50;13.80;92.20
55785;DHT22;41709;52.536;5.688;2023-05-07T05:17:16;13.80;92.10
55785;DHT22;41709;52.536;5.688;2023-05-07T05:19:41;13.80;92.10
55785;DHT22;41709;52.536;5.688;2023-05-07T05:22:07;13.80;92.00
55785;DHT22;41709;52.536;5.688;2023-05-07T05:24:32;13.80;92.00
55785;DHT22;41709;52.536;5.688;2023-05-07T05:26:58;13.80;92.00
55785;DHT22;41709;52.536;5.688;2023-05-07T05:29:26;13.80;91.90
55785;DHT22;41709;52.536;5.688;2023-05-07T05:31:52;13.80;91.90
55785;DHT22;41709;52.536;5.688;2023-05-07T05:34:17;13.80;91.90
55785;DHT22;41709;52.536;5.688;2023-05-07T05:36:45;13.80;91.90
55785;DHT22;41709;52.536;5.688;2023-05-07T05:39:10;13.80;91.80
55785;DHT22;41709;52.536;5.688;2023-05-07T05:41:36;13.80;91.80
55785;DHT22;41709;52.536;5.688;2023-05-07T05:44:01;13.80;91.70
55785;DHT22;41709;52.536;5.688;2023-05-07T05:46:27;13.80;91.70
55785;DHT22;41709;52.536;5.688;2023-05-07T05:48:52;13.80;91.60
55785;DHT22;41709;52.536;5.688;2023-05-07T05:51:18;13.70;91.60
55785;DHT22;41709;52.536;5.688;2023-05-07T05:53:43;13.70;91.60
55785;DHT22;41709;52.536;5.688;2023-05-07T05:56:09;13.70;91.60
55785;DHT22;41709;52.536;5.688;2023-05-07T05:58:34;13.70;91.50
55785;DHT22;41709;52.536;5.688;2023-05-07T06:01:00;13.70;91.50
55785;DHT22;41709;52.536;5.688;2023-05-07T06:03:27;13.70;91.50
55785;DHT22;41709;52.536;5.688;2023-05-07T06:05:53;13.70;91.40
55785;DHT22;41709;52.536;5.688;2023-05-07T06:08:18;13.70;91.40
55785;DHT22;41709;52.536;5.688;2023-05-07T06:10:45;13.80;91.60
55785;DHT22;41709;52.536;5.688;2023-05-07T06:13:10;13.80;91.60
55785;DHT22;41709;52.536;5.688;2023-05-07T06:15:36;13.80;91.40
55785;DHT22;41709;52.536;5.688;2023-05-07T06:18:02;13.90;91.40
55785;DHT22;41709;52.536;5.688;2023-05-07T06:20:28;14.00;91.50
55785;DHT22;41709;52.536;5.688;2023-05-07T06:22:53;14.00;91.30
55785;DHT22;41709;52.536;5.688;2023-05-07T06:25:19;13.90;91.20
55785;DHT22;41709;52.536;5.688;2023-05-07T06:27:45;13.90;91.10
55785;DHT22;41709;52.536;5.688;2023-05-07T06:30:11;14.00;91.20
55785;DHT22;41709;52.536;5.688;2023-05-07T06:32:36;13.90;91.10
55785;DHT22;41709;52.536;5.688;2023-05-07T06:35:02;14.00;91.10
55785;DHT22;41709;52.536;5.688;2023-05-07T06:37:28;14.00;90.90
55785;DHT22;41709;52.536;5.688;2023-05-07T06:39:53;14.00;90.90
55785;DHT22;41709;52.536;5.688;2023-05-07T06:42:19;14.00;90.90
55785;DHT22;41709;52.536;5.688;2023-05-07T06:44:45;14.00;91.00
55785;DHT22;41709;52.536;5.688;2023-05-07T06:47:10;14.10;90.80
55785;DHT22;41709;52.536;5.688;2023-05-07T06:49:36;14.00;90.60
55785;DHT22;41709;52.536;5.688;2023-05-07T06:52:01;14.00;90.40
55785;DHT22;41709;52.536;5.688;2023-05-07T06:54:27;14.00;90.40
55785;DHT22;41709;52.536;5.688;2023-05-07T06:56:52;14.10;90.40
55785;DHT22;41709;52.536;5.688;2023-05-07T06:59:18;14.00;90.50
55785;DHT22;41709;52.536;5.688;2023-05-07T07:01:44;14.10;90.80
55785;DHT22;41709;52.536;5.688;2023-05-07T07:04:10;14.20;90.80
55785;DHT22;41709;52.536;5.688;2023-05-07T07:06:35;14.20;90.70
55785;DHT22;41709;52.536;5.688;2023-05-07T07:09:01;14.20;90.50
55785;DHT22;41709;52.536;5.688;2023-05-07T07:11:26;14.30;90.50
55785;DHT22;41709;52.536;5.688;2023-05-07T07:13:52;14.40;90.50
55785;DHT22;41709;52.536;5.688;2023-05-07T07:16:20;14.40;90.50
55785;DHT22;41709;52.536;5.688;2023-05-07T07:18:46;14.50;90.50
55785;DHT22;41709;52.536;5.688;2023-05-07T07:21:11;14.50;90.30
55785;DHT22;41709;52.536;5.688;2023-05-07T07:23:38;14.60;90.50
55785;DHT22;41709;52.536;5.688;2023-05-07T07:26:03;14.60;90.90
55785;DHT22;41709;52.536;5.688;2023-05-07T07:28:29;14.80;90.50
55785;DHT22;41709;52.536;5.688;2023-05-07T07:30:55;14.80;90.00
55785;DHT22;41709;52.536;5.688;2023-05-07T07:33:20;14.90;89.60
55785;DHT22;41709;52.536;5.688;2023-05-07T07:35:46;15.00;89.30
55785;DHT22;41709;52.536;5.688;2023-05-07T07:38:11;15.10;89.30
55785;DHT22;41709;52.536;5.688;2023-05-07T07:40:37;15.20;89.30
55785;DHT22;41709;52.536;5.688;2023-05-07T07:43:02;15.30;89.70
55785;DHT22;41709;52.536;5.688;2023-05-07T07:45:28;15.30;89.00
55785;DHT22;41709;52.536;5.688;2023-05-07T07:47:54;15.30;88.90
55785;DHT22;41709;52.536;5.688;2023-05-07T07:50:20;15.40;88.80
55785;DHT22;41709;52.536;5.688;2023-05-07T07:52:45;15.50;87.90
55785;DHT22;41709;52.536;5.688;2023-05-07T07:55:11;15.60;87.90
55785;DHT22;41709;52.536;5.688;2023-05-07T07:57:37;15.50;87.60
55785;DHT22;41709;52.536;5.688;2023-05-07T08:00:03;15.60;87.40
55785;DHT22;41709;52.536;5.688;2023-05-07T08:02:29;15.60;87.10
55785;DHT22;41709;52.536;5.688;2023-05-07T08:04:55;15.60;87.30
55785;DHT22;41709;52.536;5.688;2023-05-07T08:07:21;15.70;87.60
55785;DHT22;41709;52.536;5.688;2023-05-07T08:09:48;15.70;87.70
55785;DHT22;41709;52.536;5.688;2023-05-07T08:12:13;15.70;86.90
55785;DHT22;41709;52.536;5.688;2023-05-07T08:14:39;15.60;87.00
55785;DHT22;41709;52.536;5.688;2023-05-07T08:17:04;15.60;87.50
55785;DHT22;41709;52.536;5.688;2023-05-07T08:19:30;15.60;87.60
55785;DHT22;41709;52.536;5.688;2023-05-07T08:21:56;15.60;87.40
55785;DHT22;41709;52.536;5.688;2023-05-07T08:24:21;15.60;87.50
55785;DHT22;41709;52.536;5.688;2023-05-07T08:26:47;15.70;87.60
55785;DHT22;41709;52.536;5.688;2023-05-07T08:29:12;15.70;87.80
55785;DHT22;41709;52.536;5.688;2023-05-07T08:31:38;15.80;87.60
55785;DHT22;41709;52.536;5.688;2023-05-07T08:34:06;15.80;87.40
55785;DHT22;41709;52.536;5.688;2023-05-07T08:36:32;15.80;87.30
55785;DHT22;41709;52.536;5.688;2023-05-07T08:38:58;15.90;87.10
55785;DHT22;41709;52.536;5.688;2023-05-07T08:41:24;15.90;87.20
55785;DHT22;41709;52.536;5.688;2023-05-07T08:43:50;15.90;87.30
55785;DHT22;41709;52.536;5.688;2023-05-07T08:46:20;15.90;87.40
55785;DHT22;41709;52.536;5.688;2023-05-07T08:48:50;15.90;87.90
55785;DHT22;41709;52.536;5.688;2023-05-07T08:51:20;16.00;88.10
55785;DHT22;41709;52.536;5.688;2023-05-07T08:53:47;16.10;87.50
55785;DHT22;41709;52.536;5.688;2023-05-07T08:56:14;16.20;87.20
55785;DHT22;41709;52.536;5.688;2023-05-07T08:58:41;16.20;87.00
55785;DHT22;41709;52.536;5.688;2023-05-07T09:01:09;16.30;86.70
55785;DHT22;41709;52.536;5.688;2023-05-07T09:03:36;16.30;86.80
55785;DHT22;41709;52.536;5.688;2023-05-07T09:06:02;16.30;87.40
55785;DHT22;41709;52.536;5.688;2023-05-07T09:08:28;16.40;87.10
55785;DHT22;41709;52.536;5.688;2023-05-07T09:10:54;16.40;87.40
55785;DHT22;41709;52.536;5.688;2023-05-07T09:13:20;16.50;87.50
55785;DHT22;41709;52.536;5.688;2023-05-07T09:15:46;16.60;87.20
55785;DHT22;41709;52.536;5.688;2023-05-07T09:18:12;16.70;86.30
55785;DHT22;41709;52.536;5.688;2023-05-07T09:20:38;16.70;86.40
55785;DHT22;41709;52.536;5.688;2023-05-07T09:23:05;16.80;86.50
55785;DHT22;41709;52.536;5.688;2023-05-07T09:25:33;16.90;86.90
55785;DHT22;41709;52.536;5.688;2023-05-07T09:28:02;16.90;86.90
55785;DHT22;41709;52.536;5.688;2023-05-07T09:30:29;17.00;86.00
55785;DHT22;41709;52.536;5.688;2023-05-07T09:32:55;17.20;85.80
55785;DHT22;41709;52.536;5.688;2023-05-07T09:35:21;17.30;85.90
55785;DHT22;41709;52.536;5.688;2023-05-07T09:37:49;17.40;85.80
55785;DHT22;41709;52.536;5.688;2023-05-07T09:40:22;17.50;85.10
55785;DHT22;41709;52.536;5.688;2023-05-07T09:42:49;17.60;83.70
55785;DHT22;41709;52.536;5.688;2023-05-07T09:45:48;17.80;82.70
55785;DHT22;41709;52.536;5.688;2023-05-07T09:48:07;17.80;82.90
55785;DHT22;41709;52.536;5.688;2023-05-07T09:50:36;17.90;82.00
55785;DHT22;41709;52.536;5.688;2023-05-07T09:53:06;17.90;83.30
55785;DHT22;41709;52.536;5.688;2023-05-07T09:55:32;18.10;82.80
55785;DHT22;41709;52.536;5.688;2023-05-07T09:57:58;18.00;81.90
55785;DHT22;41709;52.536;5.688;2023-05-07T10:00:25;18.00;83.00
55785;DHT22;41709;52.536;5.688;2023-05-07T10:02:52;18.10;82.10
55785;DHT22;41709;52.536;5.688;2023-05-07T10:05:19;18.10;81.60
55785;DHT22;41709;52.536;5.688;2023-05-07T10:07:48;18.00;81.60
55785;DHT22;41709;52.536;5.688;2023-05-07T10:10:14;18.10;81.80
55785;DHT22;41709;52.536;5.688;2023-05-07T10:12:41;18.10;82.20
55785;DHT22;41709;52.536;5.688;2023-05-07T10:15:10;18.10;82.30
55785;DHT22;41709;52.536;5.688;2023-05-07T10:17:38;18.10;82.00
55785;DHT22;41709;52.536;5.688;2023-05-07T10:20:05;18.20;82.20
55785;DHT22;41709;52.536;5.688;2023-05-07T10:22:36;18.30;82.80
55785;DHT22;41709;52.536;5.688;2023-05-07T10:25:02;18.40;81.60
55785;DHT22;41709;52.536;5.688;2023-05-07T10:27:29;18.50;81.20
55785;DHT22;41709;52.536;5.688;2023-05-07T10:34:55;18.80;81.20
55785;DHT22;41709;52.536;5.688;2023-05-07T10:37:22;18.80;80.50
55785;DHT22;41709;52.536;5.688;2023-05-07T10:39:48;18.90;80.70
55785;DHT22;41709;52.536;5.688;2023-05-07T10:42:15;18.90;80.80
55785;DHT22;41709;52.536;5.688;2023-05-07T10:44:40;19.00;80.10
55785;DHT22;41709;52.536;5.688;2023-05-07T10:47:07;19.00;79.30
55785;DHT22;41709;52.536;5.688;2023-05-07T10:50:20;19.30;78.10
55785;DHT22;41709;52.536;5.688;2023-05-07T10:52:24;19.20;77.70
55785;DHT22;41709;52.536;5.688;2023-05-07T10:57:50;19.30;76.90
55785;DHT22;41709;52.536;5.688;2023-05-07T11:05:26;19.50;78.80
55785;DHT22;41709;52.536;5.688;2023-05-07T11:08:02;19.60;78.70
55785;DHT22;41709;52.536;5.688;2023-05-07T11:10:50;19.60;78.10
55785;DHT22;41709;52.536;5.688;2023-05-07T11:13:16;19.60;78.40
55785;DHT22;41709;52.536;5.688;2023-05-07T11:15:45;19.70;77.80
55785;DHT22;41709;52.536;5.688;2023-05-07T11:18:12;19.70;76.60
55785;DHT22;41709;52.536;5.688;2023-05-07T11:20:57;19.80;76.60
55785;DHT22;41709;52.536;5.688;2023-05-07T11:26:04;19.80;77.10
55785;DHT22;41709;52.536;5.688;2023-05-07T11:28:31;19.90;75.60
55785;DHT22;41709;52.536;5.688;2023-05-07T11:30:57;20.10;75.30
55785;DHT22;41709;52.536;5.688;2023-05-07T11:33:23;20.10;75.00
55785;DHT22;41709;52.536;5.688;2023-05-07T11:35:52;20.20;75.50
55785;DHT22;41709;52.536;5.688;2023-05-07T11:38:18;20.30;74.80
55785;DHT22;41709;52.536;5.688;2023-05-07T11:40:58;20.40;74.40
55785;DHT22;41709;52.536;5.688;2023-05-07T11:43:28;20.50;74.70
55785;DHT22;41709;52.536;5.688;2023-05-07T11:45:53;20.60;73.00
55785;DHT22;41709;52.536;5.688;2023-05-07T11:48:21;20.60;72.20
55785;DHT22;41709;52.536;5.688;2023-05-07T11:53:26;20.60;74.30
55785;DHT22;41709;52.536;5.688;2023-05-07T11:55:58;20.70;73.10
55785;DHT22;41709;52.536;5.688;2023-05-07T11:58:24;20.60;72.70
55785;DHT22;41709;52.536;5.688;2023-05-07T12:00:51;20.50;73.00
55785;DHT22;41709;52.536;5.688;2023-05-07T12:03:17;20.70;73.50
55785;DHT22;41709;52.536;5.688;2023-05-07T12:05:46;20.50;74.00
55785;DHT22;41709;52.536;5.688;2023-05-07T12:08:19;20.30;73.80
55785;DHT22;41709;52.536;5.688;2023-05-07T12:10:47;20.20;74.80
55785;DHT22;41709;52.536;5.688;2023-05-07T12:13:24;20.00;75.60
55785;DHT22;41709;52.536;5.688;2023-05-07T12:15:52;19.90;76.00
55785;DHT22;41709;52.536;5.688;2023-05-07T12:18:18;19.90;75.90
55785;DHT22;41709;52.536;5.688;2023-05-07T12:20:44;20.00;75.50
55785;DHT22;41709;52.536;5.688;2023-05-07T12:23:10;20.00;75.70
55785;DHT22;41709;52.536;5.688;2023-05-07T12:25:40;20.00;75.30
55785;DHT22;41709;52.536;5.688;2023-05-07T12:28:13;20.00;74.70
55785;DHT22;41709;52.536;5.688;2023-05-07T12:30:39;20.00;75.10
55785;DHT22;41709;52.536;5.688;2023-05-07T12:33:05;20.00;74.80
55785;DHT22;41709;52.536;5.688;2023-05-07T12:35:32;20.00;74.50
55785;DHT22;41709;52.536;5.688;2023-05-07T12:38:01;20.00;74.10
55785;DHT22;41709;52.536;5.688;2023-05-07T12:40:40;20.10;74.60
55785;DHT22;41709;52.536;5.688;2023-05-07T12:43:06;20.10;75.40
55785;DHT22;41709;52.536;5.688;2023-05-07T12:45:37;20.20;74.30
55785;DHT22;41709;52.536;5.688;2023-05-07T12:48:04;20.30;72.00
55785;DHT22;41709;52.536;5.688;2023-05-07T12:50:33;20.20;73.10
55785;DHT22;41709;52.536;5.688;2023-05-07T12:52:59;20.30;72.80
55785;DHT22;41709;52.536;5.688;2023-05-07T12:55:25;20.10;73.50
55785;DHT22;41709;52.536;5.688;2023-05-07T12:57:51;20.10;73.50
55785;DHT22;41709;52.536;5.688;2023-05-07T13:00:18;20.20;73.60
55785;DHT22;41709;52.536;5.688;2023-05-07T13:02:58;20.20;72.60
55785;DHT22;41709;52.536;5.688;2023-05-07T13:05:23;20.30;71.30
55785;DHT22;41709;52.536;5.688;2023-05-07T13:07:53;20.40;71.70
55785;DHT22;41709;52.536;5.688;2023-05-07T13:10:20;20.50;71.70
55785;DHT22;41709;52.536;5.688;2023-05-07T13:12:45;20.60;71.80
55785;DHT22;41709;52.536;5.688;2023-05-07T13:15:11;20.60;71.80
55785;DHT22;41709;52.536;5.688;2023-05-07T13:17:36;20.70;71.70
55785;DHT22;41709;52.536;5.688;2023-05-07T13:20:02;20.70;71.60
55785;DHT22;41709;52.536;5.688;2023-05-07T13:22:27;20.80;70.40
55785;DHT22;41709;52.536;5.688;2023-05-07T13:24:53;20.80;70.90
55785;DHT22;41709;52.536;5.688;2023-05-07T13:27:18;20.90;70.80
55785;DHT22;41709;52.536;5.688;2023-05-07T13:29:44;20.90;71.30
55785;DHT22;41709;52.536;5.688;2023-05-07T13:32:10;20.90;71.20
55785;DHT22;41709;52.536;5.688;2023-05-07T13:34:35;20.90;71.00
55785;DHT22;41709;52.536;5.688;2023-05-07T13:37:02;20.90;70.10
55785;DHT22;41709;52.536;5.688;2023-05-07T13:39:27;20.90;71.00
55785;DHT22;41709;52.536;5.688;2023-05-07T13:41:53;20.90;69.30
55785;DHT22;41709;52.536;5.688;2023-05-07T13:44:18;20.80;69.80
55785;DHT22;41709;52.536;5.688;2023-05-07T13:46:44;20.70;70.00
55785;DHT22;41709;52.536;5.688;2023-05-07T13:49:10;20.60;70.10
55785;DHT22;41709;52.536;5.688;2023-05-07T13:51:36;20.60;69.30
55785;DHT22;41709;52.536;5.688;2023-05-07T13:54:02;20.50;70.00
55785;DHT22;41709;52.536;5.688;2023-05-07T13:56:28;20.50;69.90
55785;DHT22;41709;52.536;5.688;2023-05-07T13:58:56;20.50;69.80
55785;DHT22;41709;52.536;5.688;2023-05-07T14:01:21;20.70;69.60
55785;DHT22;41709;52.536;5.688;2023-05-07T14:03:47;20.70;70.00
55785;DHT22;41709;52.536;5.688;2023-05-07T14:06:12;20.80;69.70
55785;DHT22;41709;52.536;5.688;2023-05-07T14:08:38;21.00;69.90
55785;DHT22;41709;52.536;5.688;2023-05-07T14:11:03;20.90;69.80
55785;DHT22;41709;52.536;5.688;2023-05-07T14:13:29;21.00;70.90
55785;DHT22;41709;52.536;5.688;2023-05-07T14:15:56;21.10;69.80
55785;DHT22;41709;52.536;5.688;2023-05-07T14:18:21;21.10;69.10
55785;DHT22;41709;52.536;5.688;2023-05-07T14:20:47;21.20;69.20
55785;DHT22;41709;52.536;5.688;2023-05-07T14:23:14;21.20;68.70
55785;DHT22;41709;52.536;5.688;2023-05-07T14:25:40;21.20;69.50
55785;DHT22;41709;52.536;5.688;2023-05-07T14:28:06;21.10;69.90
55785;DHT22;41709;52.536;5.688;2023-05-07T14:30:32;21.10;68.70
55785;DHT22;41709;52.536;5.688;2023-05-07T14:32:57;21.10;68.40
55785;DHT22;41709;52.536;5.688;2023-05-07T14:35:23;21.10;67.50
55785;DHT22;41709;52.536;5.688;2023-05-07T14:37:48;21.00;67.10
55785;DHT22;41709;52.536;5.688;2023-05-07T14:40:14;21.00;67.70
55785;DHT22;41709;52.536;5.688;2023-05-07T14:42:40;21.00;67.80
55785;DHT22;41709;52.536;5.688;2023-05-07T14:45:06;21.00;67.80
55785;DHT22;41709;52.536;5.688;2023-05-07T14:47:31;20.90;67.90
55785;DHT22;41709;52.536;5.688;2023-05-07T14:49:57;20.90;68.80
55785;DHT22;41709;52.536;5.688;2023-05-07T14:52:23;20.90;68.70
55785;DHT22;41709;52.536;5.688;2023-05-07T14:54:49;20.90;68.90
55785;DHT22;41709;52.536;5.688;2023-05-07T14:57:15;20.90;68.80
55785;DHT22;41709;52.536;5.688;2023-05-07T14:59:44;20.90;68.70
55785;DHT22;41709;52.536;5.688;2023-05-07T15:02:11;20.80;68.50
55785;DHT22;41709;52.536;5.688;2023-05-07T15:04:37;20.80;67.70
55785;DHT22;41709;52.536;5.688;2023-05-07T15:07:03;20.80;68.80
55785;DHT22;41709;52.536;5.688;2023-05-07T15:09:29;20.80;69.10
55785;DHT22;41709;52.536;5.688;2023-05-07T15:11:55;20.70;69.30
55785;DHT22;41709;52.536;5.688;2023-05-07T15:14:20;20.70;69.10
55785;DHT22;41709;52.536;5.688;2023-05-07T15:16:47;20.70;69.90
55785;DHT22;41709;52.536;5.688;2023-05-07T15:19:13;20.70;70.70
55785;DHT22;41709;52.536;5.688;2023-05-07T15:21:40;20.60;71.30
55785;DHT22;41709;52.536;5.688;2023-05-07T15:24:06;20.60;71.20
55785;DHT22;41709;52.536;5.688;2023-05-07T15:26:32;20.50;71.20
55785;DHT22;41709;52.536;5.688;2023-05-07T15:28:57;20.40;71.40
55785;DHT22;41709;52.536;5.688;2023-05-07T15:31:24;20.40;70.70
55785;DHT22;41709;52.536;5.688;2023-05-07T15:33:50;20.30;70.70
55785;DHT22;41709;52.536;5.688;2023-05-07T15:36:17;20.30;70.40
55785;DHT22;41709;52.536;5.688;2023-05-07T15:38:43;20.30;70.70
55785;DHT22;41709;52.536;5.688;2023-05-07T15:41:08;20.20;71.40
55785;DHT22;41709;52.536;5.688;2023-05-07T15:43:44;20.20;71.60